sensor_id;sensor_type;location;lat;lon;timestamp;pressure;altitude;pressure_sealevel;temperature;humidity
67654;BME280;54791;52.364;4.648;2022-09-09T08:06:56;100559.44;;;15.81;100.00
67654;BME280;54791;52.364;4.648;2022-09-09T08:09:24;100551.56;;;15.78;100.00
67654;BME280;54791;52.364;4.648;2022-09-09T08:11:52;100554.53;;;15.88;100.00
67654;BME280;54791;52.364;4.648;2022-09-09T08:14:19;100555.00;;;15.80;100.00
67654;BME280;54791;52.364;4.648;2022-09-09T08:16:47;100560.59;;;16.18;100.00
67654;BME280;54791;52.364;4.648;2022-09-09T08:19:13;100553.72;;;16.01;100.00
67654;BME280;54791;52.364;4.648;2022-09-09T08:21:41;100551.41;;;16.09;100.00
67654;BME280;54791;52.364;4.648;2022-09-09T08:31:46;100551.19;;;15.85;100.00
67654;BME280;54791;52.364;4.648;2022-09-09T08:34:12;100552.50;;;15.92;100.00
67654;BME280;54791;52.364;4.648;2022-09-09T08:36:41;100548.31;;;15.88;100.00
67654;BME280;54791;52.364;4.648;2022-09-09T08:39:09;100547.13;;;16.06;100.00
67654;BME280;54791;52.364;4.648;2022-09-09T08:44:48;100554.69;;;16.40;100.00
67654;BME280;54791;52.364;4.648;2022-09-09T08:55:31;100563.81;;;16.50;100.00
67654;BME280;54791;52.364;4.648;2022-09-09T08:58:26;100560.25;;;16.37;100.00
67654;BME280;54791;52.364;4.648;2022-09-09T09:11:59;100560.91;;;16.40;100.00
67654;BME280;54791;52.364;4.648;2022-09-09T13:00:16;100556.78;;;17.76;100.00
67654;BME280;54791;52.364;4.648;2022-09-09T13:02:56;100562.13;;;17.76;100.00
67654;BME280;54791;52.364;4.648;2022-09-09T13:05:26;100567.50;;;17.76;100.00
67654;BME280;54791;52.364;4.648;2022-09-09T13:08:06;100563.38;;;17.59;100.00
67654;BME280;54791;52.364;4.648;2022-09-09T13:13:40;100561.16;;;17.40;100.00
67654;BME280;54791;52.364;4.648;2022-09-09T13:16:06;100565.03;;;17.36;100.00
67654;BME280;54791;52.364;4.648;2022-09-09T13:18:42;100565.22;;;17.46;100.00
67654;BME280;54791;52.364;4.648;2022-09-09T13:21:14;100573.81;;;17.75;100.00
67654;BME280;54791;52.364;4.648;2022-09-09T13:23:40;100567.28;;;17.42;100.00
67654;BME280;54791;52.364;4.648;2022-09-09T13:26:24;100557.97;;;17.22;100.00
67654;BME280;54791;52.364;4.648;2022-09-09T13:28:54;100552.06;;;17.30;100.00
67654;BME280;54791;52.364;4.648;2022-09-09T13:31:35;100555.78;;;17.40;100.00
67654;BME280;54791;52.364;4.648;2022-09-09T13:34:11;100554.09;;;17.76;100.00
67654;BME280;54791;52.364;4.648;2022-09-09T13:36:38;100559.56;;;17.75;100.00
67654;BME280;54791;52.364;4.648;2022-09-09T13:39:05;100550.22;;;17.43;100.00
67654;BME280;54791;52.364;4.648;2022-09-09T13:41:43;100551.81;;;17.59;100.00
67654;BME280;54791;52.364;4.648;2022-09-09T13:44:22;100553.59;;;17.58;100.00
67654;BME280;54791;52.364;4.648;2022-09-09T13:49:34;100551.41;;;17.39;100.00
67654;BME280;54791;52.364;4.648;2022-09-09T13:54:31;100560.31;;;17.27;100.00
67654;BME280;54791;52.364;4.648;2022-09-09T13:56:57;100561.59;;;17.21;100.00
67654;BME280;54791;52.364;4.648;2022-09-09T13:59:22;100565.81;;;17.25;100.00
67654;BME280;54791;52.364;4.648;2022-09-09T14:01:49;100557.66;;;17.01;100.00
67654;BME280;54791;52.364;4.648;2022-09-09T14:04:18;100552.63;;;16.96;100.00
67654;BME280;54791;52.364;4.648;2022-09-09T14:06:47;100560.44;;;16.87;100.00
67654;BME280;54791;52.364;4.648;2022-09-09T14:09:15;100558.94;;;16.83;100.00
67654;BME280;54791;52.364;4.648;2022-09-09T14:11:41;100558.72;;;16.86;100.00
67654;BME280;54791;52.364;4.648;2022-09-09T14:14:08;100563.53;;;16.80;100.00
67654;BME280;54791;52.364;4.648;2022-09-09T14:16:34;100560.53;;;16.85;100.00
67654;BME280;54791;52.364;4.648;2022-09-09T14:19:00;100566.31;;;16.79;100.00
67654;BME280;54791;52.364;4.648;2022-09-09T14:21:27;100571.13;;;16.87;100.00
67654;BME280;54791;52.364;4.648;2022-09-09T14:23:52;100572.97;;;17.25;100.00
67654;BME280;54791;52.364;4.648;2022-09-09T14:26:19;100570.72;;;17.19;100.00
67654;BME280;54791;52.364;4.648;2022-09-09T14:28:46;100571.38;;;17.09;100.00
67654;BME280;54791;52.364;4.648;2022-09-09T14:31:12;100573.81;;;16.74;100.00
67654;BME280;54791;52.364;4.648;2022-09-09T14:33:39;100579.75;;;16.92;100.00
67654;BME280;54791;52.364;4.648;2022-09-09T14:36:05;100577.13;;;16.77;100.00
67654;BME280;54791;52.364;4.648;2022-09-09T14:38:34;100585.78;;;16.81;100.00
67654;BME280;54791;52.364;4.648;2022-09-09T14:41:05;100583.09;;;16.81;100.00
67654;BME280;54791;52.364;4.648;2022-09-09T14:43:30;100583.88;;;16.83;100.00
67654;BME280;54791;52.364;4.648;2022-09-09T14:46:04;100588.47;;;16.81;100.00
67654;BME280;54791;52.364;4.648;2022-09-09T14:48:31;100585.88;;;16.67;100.00
67654;BME280;54791;52.364;4.648;2022-09-09T14:50:56;100582.13;;;16.56;100.00
67654;BME280;54791;52.364;4.648;2022-09-09T14:53:22;100593.16;;;16.52;100.00
67654;BME280;54791;52.364;4.648;2022-09-09T14:55:47;100586.47;;;16.44;100.00
67654;BME280;54791;52.364;4.648;2022-09-09T14:58:13;100595.97;;;16.36;100.00
67654;BME280;54791;52.364;4.648;2022-09-09T15:00:39;100596.41;;;16.29;100.00
67654;BME280;54791;52.364;4.648;2022-09-09T15:03:04;100590.78;;;16.20;100.00
67654;BME280;54791;52.364;4.648;2022-09-09T15:05:31;100583.78;;;16.04;100.00
67654;BME280;54791;52.364;4.648;2022-09-09T15:07:57;100597.53;;;15.98;100.00
67654;BME280;54791;52.364;4.648;2022-09-09T15:10:24;100589.41;;;15.99;100.00
67654;BME280;54791;52.364;4.648;2022-09-09T15:12:51;100592.41;;;15.95;100.00
67654;BME280;54791;52.364;4.648;2022-09-09T15:15:17;100589.75;;;15.95;100.00
67654;BME280;54791;52.364;4.648;2022-09-09T15:17:42;100598.81;;;15.92;100.00
67654;BME280;54791;52.364;4.648;2022-09-09T15:20:08;100594.91;;;15.84;100.00
67654;BME280;54791;52.364;4.648;2022-09-09T15:22:34;100585.44;;;15.92;100.00
67654;BME280;54791;52.364;4.648;2022-09-09T15:25:02;100594.22;;;15.80;100.00
67654;BME280;54791;52.364;4.648;2022-09-09T15:27:28;100594.63;;;15.88;100.00
67654;BME280;54791;52.364;4.648;2022-09-09T15:29:54;100597.88;;;15.93;100.00
67654;BME280;54791;52.364;4.648;2022-09-09T15:32:20;100594.94;;;16.11;100.00
67654;BME280;54791;52.364;4.648;2022-09-09T15:34:45;100592.66;;;16.05;100.00
67654;BME280;54791;52.364;4.648;2022-09-09T15:37:11;100594.53;;;15.90;100.00
67654;BME280;54791;52.364;4.648;2022-09-09T16:26:45;100613.78;;;16.50;100.00
67654;BME280;54791;52.364;4.648;2022-09-09T16:29:12;100609.91;;;16.41;100.00
67654;BME280;54791;52.364;4.648;2022-09-09T16:31:39;100607.03;;;16.44;100.00
67654;BME280;54791;52.364;4.648;2022-09-09T16:34:06;100602.19;;;16.36;100.00
67654;BME280;54791;52.364;4.648;2022-09-09T16:36:34;100610.72;;;16.56;100.00
67654;BME280;54791;52.364;4.648;2022-09-09T16:39:04;100613.78;;;16.50;100.00
67654;BME280;54791;52.364;4.648;2022-09-09T16:41:31;100614.59;;;16.64;100.00
67654;BME280;54791;52.364;4.648;2022-09-09T16:43:59;100611.94;;;16.77;100.00
67654;BME280;54791;52.364;4.648;2022-09-09T16:46:27;100615.75;;;16.73;100.00
67654;BME280;54791;52.364;4.648;2022-09-09T16:48:53;100616.00;;;16.83;100.00
67654;BME280;54791;52.364;4.648;2022-09-09T16:51:24;100604.75;;;16.78;100.00
67654;BME280;54791;52.364;4.648;2022-09-09T16:56:19;100606.78;;;16.74;100.00
67654;BME280;54791;52.364;4.648;2022-09-09T17:03:59;100613.72;;;16.77;100.00
67654;BME280;54791;52.364;4.648;2022-09-09T17:24:32;100644.25;;;16.74;100.00
67654;BME280;54791;52.364;4.648;2022-09-09T17:37:20;100642.31;;;16.63;100.00
67654;BME280;54791;52.364;4.648;2022-09-09T17:39:46;100648.44;;;16.78;100.00
67654;BME280;54791;52.364;4.648;2022-09-09T17:42:15;100659.56;;;16.72;100.00
67654;BME280;54791;52.364;4.648;2022-09-09T17:52:26;100658.34;;;16.91;100.00
67654;BME280;54791;52.364;4.648;2022-09-09T18:02:37;100667.06;;;16.67;100.00
67654;BME280;54791;52.364;4.648;2022-09-09T18:23:09;100695.38;;;16.29;100.00
67654;BME280;54791;52.364;4.648;2022-09-09T18:25:38;100692.59;;;16.31;100.00
67654;BME280;54791;52.364;4.648;2022-09-09T18:28:04;100698.56;;;16.22;100.00
67654;BME280;54791;52.364;4.648;2022-09-09T18:30:30;100705.53;;;16.24;100.00
67654;BME280;54791;52.364;4.648;2022-09-09T18:32:56;100705.03;;;16.18;100.00
67654;BME280;54791;52.364;4.648;2022-09-09T18:35:23;100704.28;;;16.15;100.00
67654;BME280;54791;52.364;4.648;2022-09-09T18:37:49;100705.44;;;16.11;100.00
67654;BME280;54791;52.364;4.648;2022-09-09T18:45:25;100711.50;;;16.28;100.00
67654;BME280;54791;52.364;4.648;2022-09-09T18:47:51;100710.59;;;16.14;100.00
67654;BME280;54791;52.364;4.648;2022-09-09T18:50:17;100705.44;;;16.11;100.00
67654;BME280;54791;52.364;4.648;2022-09-09T18:52:43;100712.09;;;16.19;100.00
67654;BME280;54791;52.364;4.648;2022-09-09T18:55:09;100711.38;;;16.17;100.00
67654;BME280;54791;52.364;4.648;2022-09-09T18:57:35;100712.91;;;16.06;100.00
67654;BME280;54791;52.364;4.648;2022-09-09T19:00:04;100715.28;;;16.11;100.00
67654;BME280;54791;52.364;4.648;2022-09-09T19:02:32;100712.59;;;16.11;100.00
67654;BME280;54791;52.364;4.648;2022-09-09T19:04:58;100723.13;;;16.14;100.00
67654;BME280;54791;52.364;4.648;2022-09-09T19:07:23;100727.41;;;16.17;100.00
67654;BME280;54791;52.364;4.648;2022-09-09T19:20:10;100732.19;;;15.97;100.00
67654;BME280;54791;52.364;4.648;2022-09-09T19:25:24;100737.66;;;15.81;100.00
67654;BME280;54791;52.364;4.648;2022-09-09T20:06:24;100768.56;;;15.85;100.00
67654;BME280;54791;52.364;4.648;2022-09-09T20:08:52;100768.78;;;15.96;100.00
67654;BME280;54791;52.364;4.648;2022-09-09T20:11:18;100768.19;;;15.91;100.00
67654;BME280;54791;52.364;4.648;2022-09-09T20:13:46;100768.41;;;15.88;100.00
67654;BME280;54791;52.364;4.648;2022-09-09T20:16:19;100777.28;;;15.89;100.00
67654;BME280;54791;52.364;4.648;2022-09-09T20:18:47;100770.63;;;15.80;100.00
67654;BME280;54791;52.364;4.648;2022-09-09T20:21:18;100782.38;;;15.77;100.00
67654;BME280;54791;52.364;4.648;2022-09-09T20:23:46;100783.09;;;15.81;100.00
67654;BME280;54791;52.364;4.648;2022-09-09T20:26:15;100795.16;;;15.72;100.00
67654;BME280;54791;52.364;4.648;2022-09-09T20:28:52;100783.34;;;15.76;100.00
67654;BME280;54791;52.364;4.648;2022-09-09T20:33:46;100789.13;;;15.99;100.00
67654;BME280;54791;52.364;4.648;2022-09-09T20:36:18;100790.06;;;15.84;100.00
67654;BME280;54791;52.364;4.648;2022-09-09T20:38:47;100784.09;;;15.78;100.00
67654;BME280;54791;52.364;4.648;2022-09-09T20:41:14;100779.13;;;15.58;100.00
67654;BME280;54791;52.364;4.648;2022-09-09T20:46:19;100783.50;;;15.59;100.00
67654;BME280;54791;52.364;4.648;2022-09-09T20:48:46;100786.88;;;15.62;100.00
67654;BME280;54791;52.364;4.648;2022-09-09T20:51:13;100794.78;;;15.64;100.00
67654;BME280;54791;52.364;4.648;2022-09-09T20:53:41;100794.09;;;15.60;100.00
67654;BME280;54791;52.364;4.648;2022-09-09T20:56:08;100792.09;;;15.64;100.00
67654;BME280;54791;52.364;4.648;2022-09-09T20:58:34;100791.06;;;15.66;100.00
67654;BME280;54791;52.364;4.648;2022-09-09T21:01:02;100789.34;;;15.65;100.00
67654;BME280;54791;52.364;4.648;2022-09-09T21:03:31;100774.44;;;15.61;100.00
67654;BME280;54791;52.364;4.648;2022-09-09T21:05:58;100777.81;;;15.65;100.00
67654;BME280;54791;52.364;4.648;2022-09-09T21:08:29;100775.13;;;15.65;100.00
67654;BME280;54791;52.364;4.648;2022-09-09T21:10:55;100777.59;;;15.54;100.00
67654;BME280;54791;52.364;4.648;2022-09-09T21:13:22;100776.22;;;15.46;100.00
67654;BME280;54791;52.364;4.648;2022-09-09T21:15:50;100780.63;;;15.47;100.00
67654;BME280;54791;52.364;4.648;2022-09-09T21:18:19;100783.59;;;15.57;100.00
67654;BME280;54791;52.364;4.648;2022-09-09T21:20:46;100784.47;;;15.58;100.00
67654;BME280;54791;52.364;4.648;2022-09-09T21:23:13;100781.31;;;15.51;100.00
67654;BME280;54791;52.364;4.648;2022-09-09T21:25:39;100779.00;;;15.45;100.00
67654;BME280;54791;52.364;4.648;2022-09-09T21:28:06;100782.53;;;15.45;100.00
67654;BME280;54791;52.364;4.648;2022-09-09T21:30:33;100782.34;;;15.48;100.00
67654;BME280;54791;52.364;4.648;2022-09-09T21:32:59;100781.88;;;15.56;100.00
67654;BME280;54791;52.364;4.648;2022-09-09T21:35:26;100781.97;;;15.55;100.00
67654;BME280;54791;52.364;4.648;2022-09-09T21:37:52;100775.97;;;15.65;100.00
67654;BME280;54791;52.364;4.648;2022-09-09T21:40:18;100783.16;;;15.65;100.00
67654;BME280;54791;52.364;4.648;2022-09-09T21:42:45;100786.38;;;15.56;100.00
67654;BME280;54791;52.364;4.648;2022-09-09T21:45:11;100802.19;;;15.44;100.00
67654;BME280;54791;52.364;4.648;2022-09-09T21:47:37;100807.31;;;15.33;100.00
67654;BME280;54791;52.364;4.648;2022-09-09T21:50:03;100820.06;;;15.28;100.00
67654;BME280;54791;52.364;4.648;2022-09-09T21:52:29;100809.84;;;15.20;100.00
67654;BME280;54791;52.364;4.648;2022-09-09T21:54:55;100804.81;;;15.30;100.00
67654;BME280;54791;52.364;4.648;2022-09-09T21:57:21;100811.34;;;15.40;100.00
67654;BME280;54791;52.364;4.648;2022-09-09T21:59:46;100812.38;;;15.38;100.00
67654;BME280;54791;52.364;4.648;2022-09-09T22:02:12;100813.78;;;15.29;100.00
67654;BME280;54791;52.364;4.648;2022-09-09T22:04:38;100812.28;;;15.39;100.00
67654;BME280;54791;52.364;4.648;2022-09-09T22:07:08;100813.22;;;15.38;100.00
67654;BME280;54791;52.364;4.648;2022-09-09T22:09:34;100813.00;;;15.27;100.00
67654;BME280;54791;52.364;4.648;2022-09-09T22:12:00;100807.44;;;15.15;100.00
67654;BME280;54791;52.364;4.648;2022-09-09T22:14:27;100807.66;;;15.27;100.00
67654;BME280;54791;52.364;4.648;2022-09-09T22:16:53;100813.09;;;15.25;100.00
67654;BME280;54791;52.364;4.648;2022-09-09T22:19:18;100807.66;;;15.27;100.00
67654;BME280;54791;52.364;4.648;2022-09-09T22:21:44;100808.25;;;15.32;100.00
67654;BME280;54791;52.364;4.648;2022-09-09T22:24:10;100807.84;;;15.24;100.00
67654;BME280;54791;52.364;4.648;2022-09-09T22:26:37;100802.50;;;15.24;100.00
67654;BME280;54791;52.364;4.648;2022-09-09T22:29:04;100796.38;;;15.22;100.00
67654;BME280;54791;52.364;4.648;2022-09-09T22:31:32;100797.72;;;15.14;100.00
67654;BME280;54791;52.364;4.648;2022-09-09T22:33:58;100788.22;;;15.09;100.00
67654;BME280;54791;52.364;4.648;2022-09-09T22:36:24;100785.31;;;15.13;100.00
67654;BME280;54791;52.364;4.648;2022-09-09T22:38:51;100787.88;;;15.15;100.00
67654;BME280;54791;52.364;4.648;2022-09-09T22:41:18;100786.16;;;15.14;100.00
67654;BME280;54791;52.364;4.648;2022-09-09T22:43:45;100786.44;;;15.09;100.00
67654;BME280;54791;52.364;4.648;2022-09-09T22:46:11;100792.91;;;15.05;100.00
67654;BME280;54791;52.364;4.648;2022-09-09T22:48:38;100787.47;;;15.07;100.00
67654;BME280;54791;52.364;4.648;2022-09-09T22:51:06;100789.00;;;15.11;100.00
67654;BME280;54791;52.364;4.648;2022-09-09T22:53:33;100784.03;;;15.05;100.00
67654;BME280;54791;52.364;4.648;2022-09-09T22:56:03;100786.97;;;15.00;100.00
67654;BME280;54791;52.364;4.648;2022-09-09T22:58:31;100786.72;;;14.89;100.00
67654;BME280;54791;52.364;4.648;2022-09-09T23:00:58;100786.53;;;14.92;100.00
67654;BME280;54791;52.364;4.648;2022-09-09T23:03:28;100789.91;;;14.95;100.00
67654;BME280;54791;52.364;4.648;2022-09-09T23:05:57;100787.31;;;14.94;100.00
67654;BME280;54791;52.364;4.648;2022-09-09T23:08:25;100782.53;;;14.85;100.00
67654;BME280;54791;52.364;4.648;2022-09-09T23:10:57;100778.81;;;14.87;100.00
67654;BME280;54791;52.364;4.648;2022-09-09T23:13:23;100783.28;;;14.87;100.00
67654;BME280;54791;52.364;4.648;2022-09-09T23:15:49;100782.44;;;14.86;100.00
67654;BME280;54791;52.364;4.648;2022-09-09T23:18:16;100781.19;;;14.92;100.00
67654;BME280;54791;52.364;4.648;2022-09-09T23:20:43;100775.72;;;14.95;100.00
67654;BME280;54791;52.364;4.648;2022-09-09T23:23:11;100769.41;;;14.96;100.00
67654;BME280;54791;52.364;4.648;2022-09-09T23:25:37;100769.22;;;14.99;100.00
67654;BME280;54791;52.364;4.648;2022-09-09T23:28:03;100763.81;;;15.00;100.00
67654;BME280;54791;52.364;4.648;2022-09-09T23:30:29;100765.91;;;15.10;100.00
67654;BME280;54791;52.364;4.648;2022-09-09T23:32:55;100765.75;;;15.13;100.00
67654;BME280;54791;52.364;4.648;2022-09-09T23:35:22;100771.16;;;15.11;100.00
67654;BME280;54791;52.364;4.648;2022-09-09T23:37:48;100780.16;;;15.10;100.00
67654;BME280;54791;52.364;4.648;2022-09-09T23:40:13;100779.19;;;15.11;100.00
67654;BME280;54791;52.364;4.648;2022-09-09T23:42:39;100778.34;;;15.11;100.00
67654;BME280;54791;52.364;4.648;2022-09-09T23:45:06;100773.69;;;15.14;100.00
67654;BME280;54791;52.364;4.648;2022-09-09T23:47:32;100771.84;;;15.15;100.00
67654;BME280;54791;52.364;4.648;2022-09-09T23:49:57;100775.66;;;15.11;100.00
67654;BME280;54791;52.364;4.648;2022-09-09T23:52:23;100769.28;;;15.13;100.00
67654;BME280;54791;52.364;4.648;2022-09-09T23:54:49;100768.25;;;15.16;100.00
67654;BME280;54791;52.364;4.648;2022-09-09T23:57:15;100774.16;;;15.21;100.00
67654;BME280;54791;52.364;4.648;2022-09-09T23:59:40;100763.16;;;15.11;100.00
